Time;durP1;ratioP1;P1;durP2;ratioP2;P2;SDS_P1;SDS_P2;PMS_P1;PMS_P2;Temp;Humidity;BMP_temperature;BMP_pressure;BME280_temperature;BME280_humidity;BME280_pressure;Samples;Min_cycle;Max_cycle;Signal;HPM_P1;HPM_P2
2023/05/14 00:01:34;;;;;;;10.90;6.53;;;14.70;87.00;;;;;;1924769;74;21140;-48
2023/05/14 00:04:06;;;;;;;8.58;6.25;;;14.60;86.80;;;;;;1924619;74;21232;-48
2023/05/14 00:06:36;;;;;;;12.55;9.20;;;14.60;87.00;;;;;;1924661;74;21019;-48
2023/05/14 00:09:05;;;;;;;11.25;7.30;;;14.60;87.20;;;;;;1924573;74;21054;-48
2023/05/14 00:11:34;;;;;;;12.75;6.97;;;14.60;87.20;;;;;;1924639;74;21195;-48
2023/05/14 00:14:03;;;;;;;11.50;7.08;;;14.50;87.30;;;;;;1924642;74;21110;-48
2023/05/14 00:16:33;;;;;;;13.98;7.25;;;14.50;87.50;;;;;;1924683;74;21156;-48
2023/05/14 00:19:02;;;;;;;8.30;5.95;;;14.50;87.60;;;;;;1924608;74;21027;-49
2023/05/14 00:21:31;;;;;;;11.63;6.85;;;14.40;87.60;;;;;;1924645;74;21083;-48
2023/05/14 00:24:01;;;;;;;11.48;6.55;;;14.40;87.40;;;;;;1924607;74;21105;-49
2023/05/14 00:26:30;;;;;;;12.60;6.28;;;14.40;87.50;;;;;;1924669;74;21019;-48
2023/05/14 00:28:59;;;;;;;9.75;5.60;;;14.40;87.50;;;;;;1924562;74;20998;-48
2023/05/14 00:31:28;;;;;;;12.23;6.53;;;14.40;87.70;;;;;;1924813;74;21028;-48
2023/05/14 00:33:57;;;;;;;9.08;5.53;;;14.30;87.70;;;;;;1924706;74;21059;-49
2023/05/14 00:36:26;;;;;;;12.40;7.33;;;14.30;87.90;;;;;;1924602;74;21046;-48
2023/05/14 00:38:55;;;;;;;10.25;6.53;;;14.30;88.00;;;;;;1924639;74;21179;-48
2023/05/14 00:41:24;;;;;;;9.23;6.20;;;14.30;88.10;;;;;;1924715;74;21081;-48
2023/05/14 00:43:53;;;;;;;9.95;6.47;;;14.30;88.20;;;;;;1924600;74;21257;-48
2023/05/14 00:46:23;;;;;;;13.93;6.75;;;14.30;88.20;;;;;;1924631;74;21094;-48
2023/05/14 00:48:52;;;;;;;12.10;5.97;;;14.20;88.20;;;;;;1924650;74;21088;-48
2023/05/14 00:51:21;;;;;;;12.13;6.47;;;14.20;88.20;;;;;;1924723;74;21090;-48
2023/05/14 00:53:51;;;;;;;11.48;6.47;;;14.20;88.30;;;;;;1924712;74;21437;-48
2023/05/14 00:56:21;;;;;;;12.45;7.03;;;14.20;88.40;;;;;;1924719;74;20998;-51
2023/05/14 00:58:50;;;;;;;12.70;7.10;;;14.20;88.50;;;;;;1924600;74;21098;-51
2023/05/14 01:01:19;;;;;;;11.03;7.55;;;14.20;88.50;;;;;;1924634;74;21227;-51
2023/05/14 01:03:52;;;;;;;10.88;6.92;;;14.10;88.60;;;;;;1924628;74;20999;-49
2023/05/14 01:06:22;;;;;;;13.80;7.12;;;14.20;88.80;;;;;;1924622;73;21607;-50
2023/05/14 01:09:00;;;;;;;11.75;6.65;;;14.10;88.70;;;;;;1888915;74;21098;-49
2023/05/14 01:11:44;;;;;;;10.23;7.20;;;14.10;88.80;;;;;;1924641;74;21551;-50
2023/05/14 01:14:22;;;;;;;10.05;6.58;;;14.10;88.80;;;;;;1924435;74;21018;-50
2023/05/14 01:16:53;;;;;;;13.05;7.95;;;14.10;88.90;;;;;;1924758;74;21168;-49
2023/05/14 01:19:28;;;;;;;9.15;6.40;;;14.10;89.00;;;;;;1924616;74;21545;-49
2023/05/14 01:21:57;;;;;;;11.10;7.35;;;14.10;89.10;;;;;;1923904;74;21035;-49
2023/05/14 01:24:26;;;;;;;8.40;6.67;;;14.10;89.10;;;;;;1924714;74;21475;-50
2023/05/14 01:26:58;;;;;;;10.65;7.28;;;14.10;89.10;;;;;;1924892;74;21078;-51
2023/05/14 01:29:30;;;;;;;10.25;7.47;;;14.10;89.20;;;;;;1924722;74;21480;-50
2023/05/14 01:32:00;;;;;;;9.18;6.83;;;14.20;89.10;;;;;;1924679;74;21035;-50
2023/05/14 01:34:31;;;;;;;9.28;6.83;;;14.10;89.10;;;;;;1924615;74;21038;-49
2023/05/14 01:37:01;;;;;;;12.78;7.70;;;14.10;89.10;;;;;;1924662;74;21003;-48
2023/05/14 01:39:32;;;;;;;12.45;7.17;;;14.10;88.90;;;;;;1924752;74;21122;-49
2023/05/14 01:42:02;;;;;;;10.40;7.15;;;14.10;89.00;;;;;;1924719;74;21014;-49
2023/05/14 01:44:31;;;;;;;11.35;6.72;;;14.10;89.30;;;;;;1924683;74;21509;-49
2023/05/14 01:47:02;;;;;;;9.75;7.35;;;14.10;90.00;;;;;;1924730;74;21096;-49
2023/05/14 01:49:31;;;;;;;11.03;7.42;;;14.10;89.60;;;;;;1924607;74;21600;-49
2023/05/14 01:52:00;;;;;;;12.03;7.42;;;14.10;89.60;;;;;;1924796;74;21086;-49
2023/05/14 01:54:30;;;;;;;9.68;6.55;;;14.10;89.60;;;;;;1903941;74;21473;-50
2023/05/14 01:56:59;;;;;;;8.30;6.67;;;14.00;89.60;;;;;;1924757;74;21039;-49
2023/05/14 01:59:28;;;;;;;10.60;7.33;;;14.00;89.70;;;;;;1924716;74;21011;-50
2023/05/14 02:01:57;;;;;;;9.63;6.67;;;14.00;89.70;;;;;;1924732;74;21168;-49
2023/05/14 02:04:27;;;;;;;10.53;7.30;;;13.90;89.80;;;;;;1924778;74;21019;-48
2023/05/14 02:06:56;;;;;;;14.40;6.67;;;13.90;89.90;;;;;;1924788;74;21116;-48
2023/05/14 02:09:26;;;;;;;13.50;7.47;;;13.90;90.00;;;;;;1924671;74;21042;-49
2023/05/14 02:11:55;;;;;;;10.28;7.20;;;13.90;90.00;;;;;;1924774;74;21100;-52
2023/05/14 02:14:24;;;;;;;11.40;7.45;;;13.90;90.00;;;;;;1924790;74;21076;-49
2023/05/14 02:16:53;;;;;;;14.05;7.50;;;13.90;90.10;;;;;;1924800;74;21011;-49
2023/05/14 02:19:22;;;;;;;9.20;7.20;;;13.80;90.10;;;;;;1924853;74;21097;-48
2023/05/14 02:21:52;;;;;;;14.93;7.72;;;13.80;90.20;;;;;;1924739;74;21165;-49
2023/05/14 02:24:21;;;;;;;14.43;6.20;;;13.80;90.20;;;;;;1924855;74;21082;-49
2023/05/14 02:26:50;;;;;;;10.03;6.83;;;13.80;90.20;;;;;;1924802;74;21074;-49
2023/05/14 02:29:19;;;;;;;11.18;6.53;;;13.80;90.20;;;;;;1924744;74;21130;-48
2023/05/14 02:31:48;;;;;;;11.10;7.35;;;13.80;90.20;;;;;;1924976;74;21130;-51
2023/05/14 02:34:17;;;;;;;12.43;7.10;;;13.80;90.20;;;;;;1924851;74;21150;-49
2023/05/14 02:36:47;;;;;;;11.00;7.35;;;13.80;90.20;;;;;;1924963;74;20999;-49
2023/05/14 02:39:16;;;;;;;10.90;7.25;;;13.80;90.20;;;;;;1924842;74;21026;-49
2023/05/14 02:41:46;;;;;;;9.65;7.15;;;13.80;90.20;;;;;;1924924;74;21282;-49
2023/05/14 02:44:16;;;;;;;10.70;7.10;;;13.70;90.30;;;;;;1924912;74;21065;-49
2023/05/14 02:46:45;;;;;;;11.90;7.03;;;13.70;90.40;;;;;;1924903;74;21010;-50
2023/05/14 02:49:14;;;;;;;11.18;6.85;;;13.70;90.40;;;;;;1924676;74;21098;-48
2023/05/14 02:51:44;;;;;;;15.10;8.10;;;13.70;90.40;;;;;;1924703;74;21098;-49
2023/05/14 02:54:15;;;;;;;12.37;7.65;;;13.70;90.50;;;;;;1924680;74;21094;-49
2023/05/14 02:56:44;;;;;;;13.58;8.18;;;13.70;90.50;;;;;;1924614;74;21062;-48
2023/05/14 02:59:13;;;;;;;13.35;7.72;;;13.70;90.50;;;;;;1924682;74;21059;-48
2023/05/14 03:01:42;;;;;;;12.50;7.87;;;13.70;90.60;;;;;;1924654;74;21086;-49
2023/05/14 03:04:11;;;;;;;12.07;8.28;;;13.70;90.60;;;;;;1924679;74;21023;-49
2023/05/14 03:06:41;;;;;;;12.25;7.50;;;13.70;90.60;;;;;;1924638;74;21015;-49
2023/05/14 03:09:10;;;;;;;15.85;8.10;;;13.80;90.60;;;;;;1924602;74;21023;-51
2023/05/14 03:11:39;;;;;;;14.38;8.43;;;13.80;90.60;;;;;;1924727;74;21007;-49
2023/05/14 03:14:08;;;;;;;10.00;7.42;;;13.90;90.60;;;;;;1924674;74;21014;-50
2023/05/14 03:16:38;;;;;;;11.60;7.95;;;13.90;90.60;;;;;;1924662;74;21046;-50
2023/05/14 03:19:08;;;;;;;15.48;7.75;;;13.90;90.50;;;;;;1924660;74;21010;-48
2023/05/14 03:21:37;;;;;;;20.25;9.20;;;14.00;90.60;;;;;;1924652;74;21525;-48
2023/05/14 03:24:07;;;;;;;12.33;8.58;;;14.00;90.50;;;;;;1924858;74;21061;-49
2023/05/14 03:26:36;;;;;;;16.90;9.60;;;14.00;90.50;;;;;;1924651;74;21070;-50
2023/05/14 03:29:05;;;;;;;39.67;10.32;;;14.10;90.80;;;;;;1924736;74;21094;-49
2023/05/14 03:31:36;;;;;;;13.25;8.55;;;14.00;90.50;;;;;;1924635;74;21236;-49
2023/05/14 03:34:05;;;;;;;13.60;7.67;;;14.00;90.60;;;;;;1924745;74;21138;-48
2023/05/14 03:36:36;;;;;;;15.95;8.83;;;14.00;90.60;;;;;;1924555;74;21149;-48
2023/05/14 03:39:08;;;;;;;12.20;7.92;;;14.00;90.70;;;;;;1924809;74;21433;-49
2023/05/14 03:41:38;;;;;;;14.63;8.40;;;14.00;90.70;;;;;;1924776;74;21614;-48
2023/05/14 03:44:07;;;;;;;16.07;9.43;;;14.10;91.00;;;;;;1924749;74;21172;-48
2023/05/14 03:46:36;;;;;;;13.48;8.95;;;14.10;90.70;;;;;;1924619;74;21659;-48
2023/05/14 03:49:06;;;;;;;12.55;8.63;;;14.10;90.60;;;;;;1924679;74;21092;-48
2023/05/14 03:51:36;;;;;;;10.35;7.45;;;14.20;90.60;;;;;;1924697;74;21084;-49
2023/05/14 03:54:06;;;;;;;12.13;7.78;;;14.20;90.60;;;;;;1924761;74;21061;-48
2023/05/14 03:56:35;;;;;;;16.07;8.38;;;14.30;90.60;;;;;;1924736;74;21003;-48
2023/05/14 03:59:04;;;;;;;13.62;8.35;;;14.30;90.60;;;;;;1924635;74;21664;-49
2023/05/14 04:01:33;;;;;;;13.88;8.40;;;14.40;90.60;;;;;;1924723;74;21084;-48
2023/05/14 04:04:03;;;;;;;18.82;8.85;;;14.40;90.50;;;;;;1924784;74;21011;-49
2023/05/14 04:06:32;;;;;;;10.03;7.45;;;14.50;90.50;;;;;;1924760;74;21109;-48
2023/05/14 04:09:03;;;;;;;11.33;7.83;;;14.50;90.50;;;;;;1924584;74;21023;-48
2023/05/14 04:11:32;;;;;;;13.53;8.18;;;14.60;90.60;;;;;;1924844;74;21022;-48
2023/05/14 04:14:02;;;;;;;14.98;8.40;;;14.60;90.50;;;;;;1924653;74;21087;-49
2023/05/14 04:16:31;;;;;;;14.78;9.70;;;14.70;90.50;;;;;;1924690;74;21042;-48
2023/05/14 04:19:03;;;;;;;18.73;9.73;;;14.70;90.40;;;;;;1924684;74;21080;-48
2023/05/14 04:21:32;;;;;;;15.43;9.18;;;14.70;90.30;;;;;;1924599;74;21042;-48
2023/05/14 04:24:01;;;;;;;15.50;9.50;;;14.80;90.30;;;;;;1924760;74;21026;-48
2023/05/14 04:26:31;;;;;;;15.35;10.28;;;14.80;90.30;;;;;;1924917;74;21087;-48
2023/05/14 04:29:01;;;;;;;16.35;10.10;;;14.80;90.20;;;;;;1924856;74;21118;-49
2023/05/14 04:31:31;;;;;;;13.95;9.88;;;14.90;90.20;;;;;;1924861;74;21094;-48
2023/05/14 04:34:00;;;;;;;15.53;10.13;;;14.90;90.20;;;;;;1924729;74;21076;-48
2023/05/14 04:36:29;;;;;;;14.13;9.13;;;14.90;90.10;;;;;;1915800;74;21125;-48
2023/05/14 04:38:58;;;;;;;20.52;12.43;;;15.00;90.10;;;;;;1905362;75;21011;-48
2023/05/14 04:41:27;;;;;;;23.73;11.90;;;15.10;90.00;;;;;;1905309;75;21595;-48
2023/05/14 04:44:04;;;;;;;17.10;9.78;;;15.10;89.70;;;;;;1905353;75;21152;-48
2023/05/14 04:46:30;;;;;;;19.17;10.05;;;15.20;89.60;;;;;;1904135;75;21055;-51
2023/05/14 04:49:00;;;;;;;13.53;9.75;;;15.20;89.70;;;;;;1905521;75;21015;-51
2023/05/14 04:51:29;;;;;;;16.65;9.70;;;15.20;89.60;;;;;;1905480;75;21039;-50
2023/05/14 04:53:58;;;;;;;13.22;9.20;;;15.30;89.40;;;;;;1905449;75;21532;-51
2023/05/14 04:56:27;;;;;;;12.58;8.30;;;15.30;89.10;;;;;;1905546;74;21043;-49
2023/05/14 04:58:57;;;;;;;14.07;9.95;;;15.30;89.20;;;;;;1905435;75;21062;-50
2023/05/14 05:01:26;;;;;;;18.00;11.28;;;15.20;89.20;;;;;;1905279;75;21081;-49
2023/05/14 05:03:56;;;;;;;16.70;9.85;;;15.10;89.30;;;;;;1905304;75;21176;-48
2023/05/14 05:06:25;;;;;;;13.22;8.73;;;15.10;89.60;;;;;;1905252;75;21015;-50
2023/05/14 05:08:54;;;;;;;16.60;9.30;;;15.10;89.60;;;;;;1905324;75;21015;-48
2023/05/14 05:11:24;;;;;;;14.45;8.80;;;15.10;89.60;;;;;;1905198;75;21036;-48
2023/05/14 05:13:53;;;;;;;21.15;15.55;;;15.20;89.60;;;;;;1905182;75;21007;-48
2023/05/14 05:16:22;;;;;;;15.72;10.53;;;15.20;89.70;;;;;;1905221;75;21091;-49
2023/05/14 05:18:51;;;;;;;16.32;10.98;;;15.20;89.70;;;;;;1905427;75;20999;-48
2023/05/14 05:21:20;;;;;;;15.95;10.13;;;15.30;89.60;;;;;;1905243;74;21012;-47
2023/05/14 05:23:50;;;;;;;13.83;9.63;;;15.30;89.50;;;;;;1905198;74;21105;-49
2023/05/14 05:26:21;;;;;;;15.95;9.85;;;15.40;89.40;;;;;;1905247;74;21015;-48
2023/05/14 05:28:50;;;;;;;13.95;9.63;;;15.40;89.20;;;;;;1905181;75;21011;-48
2023/05/14 05:31:19;;;;;;;16.48;10.98;;;15.50;89.10;;;;;;1905266;74;21031;-48
2023/05/14 05:33:48;;;;;;;19.52;10.80;;;15.50;89.00;;;;;;1905479;75;21019;-47
2023/05/14 05:36:17;;;;;;;20.88;10.65;;;15.60;88.90;;;;;;1907667;74;21168;-49
2023/05/14 05:38:46;;;;;;;18.55;10.38;;;15.50;88.80;;;;;;1924676;74;21445;-48
2023/05/14 05:41:15;;;;;;;17.87;10.60;;;15.60;88.80;;;;;;1924540;74;21043;-47
2023/05/14 05:43:44;;;;;;;18.75;10.13;;;15.70;88.70;;;;;;1924569;74;21088;-48
2023/05/14 05:46:13;;;;;;;16.67;9.98;;;15.80;88.50;;;;;;1924731;74;21035;-47
2023/05/14 05:48:43;;;;;;;16.00;9.40;;;15.90;88.20;;;;;;1924536;74;21418;-48
2023/05/14 05:51:12;;;;;;;16.23;10.13;;;15.90;88.10;;;;;;1924600;74;21002;-47
2023/05/14 05:53:41;;;;;;;17.90;11.40;;;16.00;87.80;;;;;;1924629;74;21003;-48
2023/05/14 05:56:10;;;;;;;15.90;9.73;;;16.00;87.70;;;;;;1924664;74;21095;-48
2023/05/14 05:58:40;;;;;;;17.32;8.58;;;16.00;87.60;;;;;;1924705;74;21019;-48
2023/05/14 06:01:09;;;;;;;15.98;12.70;;;16.00;87.60;;;;;;1924563;74;21019;-47
2023/05/14 06:03:38;;;;;;;14.85;8.68;;;16.10;87.40;;;;;;1924584;74;21084;-50
2023/05/14 06:06:08;;;;;;;10.70;7.70;;;16.10;87.20;;;;;;1924568;74;20991;-47
2023/05/14 06:08:37;;;;;;;11.15;7.42;;;16.20;87.00;;;;;;1924598;74;21171;-49
2023/05/14 06:11:06;;;;;;;9.98;7.20;;;16.20;86.80;;;;;;1924617;74;20983;-47
2023/05/14 06:13:36;;;;;;;15.70;7.60;;;16.30;86.80;;;;;;1924734;74;21068;-47
2023/05/14 06:16:05;;;;;;;11.60;7.03;;;16.40;86.80;;;;;;1924705;74;21014;-49
2023/05/14 06:18:34;;;;;;;13.30;8.35;;;16.50;86.60;;;;;;1924684;74;20983;-48
2023/05/14 06:21:03;;;;;;;16.90;9.68;;;16.60;85.80;;;;;;1924683;74;21450;-50
2023/05/14 06:23:33;;;;;;;16.62;9.40;;;16.60;85.70;;;;;;1924712;74;20999;-47
2023/05/14 06:26:02;;;;;;;13.38;9.65;;;16.60;86.30;;;;;;1924631;74;21043;-51
2023/05/14 06:28:31;;;;;;;14.20;9.58;;;16.70;85.60;;;;;;1924669;74;21092;-47
2023/05/14 06:31:00;;;;;;;13.40;9.15;;;16.70;85.50;;;;;;1924610;74;21096;-47
2023/05/14 06:33:30;;;;;;;14.10;8.23;;;16.70;85.30;;;;;;1924786;74;21006;-48
2023/05/14 06:36:04;;;;;;;15.68;9.40;;;16.80;84.90;;;;;;1924757;74;20991;-50
2023/05/14 06:38:33;;;;;;;13.78;9.80;;;16.80;84.80;;;;;;1924719;74;21050;-47
2023/05/14 06:41:02;;;;;;;12.65;9.10;;;16.80;84.80;;;;;;1924796;74;21120;-48
2023/05/14 06:43:31;;;;;;;15.00;9.18;;;16.90;84.90;;;;;;1924554;74;21523;-47
2023/05/14 06:46:00;;;;;;;10.58;8.30;;;16.90;84.90;;;;;;1924684;74;21038;-47
2023/05/14 06:48:29;;;;;;;11.22;8.20;;;17.00;84.40;;;;;;1924540;74;21497;-47
2023/05/14 06:50:58;;;;;;;14.50;9.30;;;17.00;84.40;;;;;;1924574;74;21422;-50
2023/05/14 06:53:27;;;;;;;19.20;8.05;;;17.10;84.10;;;;;;1924687;74;21501;-48
2023/05/14 06:55:57;;;;;;;12.37;8.40;;;17.10;84.00;;;;;;1924606;74;21069;-50
2023/05/14 06:58:26;;;;;;;13.03;8.15;;;17.10;84.00;;;;;;1924644;74;21018;-47
2023/05/14 07:00:55;;;;;;;10.93;7.58;;;17.10;84.00;;;;;;1924635;74;21108;-47
2023/05/14 07:03:24;;;;;;;15.28;8.18;;;17.10;83.50;;;;;;1924662;74;21511;-49
2023/05/14 07:05:53;;;;;;;10.65;7.80;;;17.20;83.00;;;;;;1924736;74;21007;-47
2023/05/14 07:08:23;;;;;;;18.70;8.58;;;17.20;82.60;;;;;;1924895;74;21090;-48
2023/05/14 07:10:51;;;;;;;9.80;7.30;;;17.20;82.20;;;;;;1924684;74;21023;-48
2023/05/14 07:13:21;;;;;;;9.75;6.45;;;17.30;82.60;;;;;;1924912;74;21133;-46
2023/05/14 07:15:50;;;;;;;10.20;6.28;;;17.30;82.00;;;;;;1924714;74;21027;-47
2023/05/14 07:18:19;;;;;;;9.10;5.80;;;17.40;82.20;;;;;;1924698;74;21015;-50
2023/05/14 07:20:48;;;;;;;11.00;7.40;;;17.50;82.10;;;;;;1924722;74;21477;-51
2023/05/14 07:23:17;;;;;;;12.18;7.50;;;17.50;82.20;;;;;;1924857;74;21043;-47
2023/05/14 07:25:47;;;;;;;9.58;6.53;;;17.60;82.30;;;;;;1924836;74;21035;-47
2023/05/14 07:28:17;;;;;;;14.33;8.65;;;17.60;82.20;;;;;;1924759;74;21101;-47
2023/05/14 07:30:46;;;;;;;19.95;8.70;;;17.70;82.10;;;;;;1924680;74;21086;-49
2023/05/14 07:33:15;;;;;;;16.67;9.93;;;17.70;82.30;;;;;;1924773;74;21084;-48
2023/05/14 07:35:44;;;;;;;17.82;9.38;;;17.70;83.10;;;;;;1924698;74;21125;-49
2023/05/14 07:38:13;;;;;;;28.73;10.45;;;17.70;82.70;;;;;;1924602;74;21116;-50
2023/05/14 07:40:43;;;;;;;21.17;10.23;;;17.70;82.90;;;;;;1924701;74;21038;-49
2023/05/14 07:43:12;;;;;;;16.00;8.28;;;17.80;82.90;;;;;;1924612;74;21018;-48
2023/05/14 07:45:41;;;;;;;12.80;5.80;;;17.90;83.50;;;;;;1924678;74;21047;-48
2023/05/14 07:48:10;;;;;;;11.57;6.05;;;17.90;82.90;;;;;;1924665;74;21096;-47
2023/05/14 07:50:39;;;;;;;8.75;5.97;;;17.90;82.50;;;;;;1924519;74;21014;-49
2023/05/14 07:53:09;;;;;;;9.48;5.10;;;18.00;82.50;;;;;;1924569;74;21783;-48
2023/05/14 07:55:38;;;;;;;8.68;5.47;;;18.00;81.80;;;;;;1924672;74;21164;-49
2023/05/14 07:58:07;;;;;;;8.55;5.28;;;18.10;81.90;;;;;;1924831;74;21023;-49
2023/05/14 08:00:36;;;;;;;6.70;4.78;;;18.10;81.00;;;;;;1924738;74;21011;-47
2023/05/14 08:03:06;;;;;;;8.43;5.37;;;18.10;81.10;;;;;;1924858;74;20999;-50
2023/05/14 08:05:35;;;;;;;10.32;6.70;;;18.20;80.50;;;;;;1924708;74;21084;-47
2023/05/14 08:08:04;;;;;;;8.78;5.17;;;18.30;80.40;;;;;;1924926;74;21378;-47
2023/05/14 08:10:34;;;;;;;7.75;5.22;;;18.30;80.00;;;;;;1924842;74;21100;-48
2023/05/14 08:13:03;;;;;;;8.83;4.28;;;18.30;79.90;;;;;;1924708;74;21064;-47
2023/05/14 08:15:32;;;;;;;6.33;4.08;;;18.40;79.70;;;;;;1924778;74;21113;-49
2023/05/14 08:18:02;;;;;;;5.03;4.40;;;18.40;79.30;;;;;;1924711;74;21132;-49
2023/05/14 08:20:31;;;;;;;8.23;4.78;;;18.40;79.60;;;;;;1924748;74;21043;-49
2023/05/14 08:23:00;;;;;;;6.00;4.00;;;18.50;79.80;;;;;;1924711;74;21076;-50
2023/05/14 08:25:29;;;;;;;7.28;5.10;;;18.50;79.30;;;;;;1924688;74;21171;-49
2023/05/14 08:28:00;;;;;;;6.12;4.70;;;18.60;79.50;;;;;;1924690;74;21038;-50
2023/05/14 08:30:29;;;;;;;7.92;4.30;;;18.60;79.20;;;;;;1924493;74;21026;-48
2023/05/14 08:32:59;;;;;;;9.28;5.12;;;18.70;79.50;;;;;;1924537;74;21493;-48
2023/05/14 08:35:28;;;;;;;7.70;4.50;;;18.80;79.10;;;;;;1924525;74;21023;-51
2023/05/14 08:37:57;;;;;;;8.25;5.53;;;18.90;78.20;;;;;;1924455;74;21010;-48
2023/05/14 08:40:26;;;;;;;9.18;4.42;;;18.90;78.60;;;;;;1924694;74;21030;-50
2023/05/14 08:42:58;;;;;;;5.55;3.85;;;18.90;78.10;;;;;;1924534;74;21507;-49
2023/05/14 08:45:32;;;;;;;8.25;5.08;;;19.00;77.50;;;;;;1924609;74;20995;-48
2023/05/14 08:48:07;;;;;;;11.30;4.85;;;19.00;77.70;;;;;;1924769;74;21027;-50
2023/05/14 08:50:35;;;;;;;5.15;4.05;;;19.00;76.50;;;;;;1924642;74;21083;-47
2023/05/14 08:53:05;;;;;;;6.75;4.25;;;19.00;76.10;;;;;;1924628;74;21034;-49
2023/05/14 08:55:35;;;;;;;6.17;4.03;;;19.00;76.00;;;;;;1924626;74;21019;-49
2023/05/14 08:58:04;;;;;;;4.92;3.37;;;19.10;75.40;;;;;;1924600;74;21023;-48
2023/05/14 09:00:33;;;;;;;6.47;3.60;;;19.10;75.70;;;;;;1924696;74;21096;-47
2023/05/14 09:03:03;;;;;;;4.10;3.70;;;19.20;75.10;;;;;;1924696;74;20998;-48
2023/05/14 09:05:33;;;;;;;5.25;3.22;;;19.20;75.40;;;;;;1924713;74;21014;-49
2023/05/14 09:08:02;;;;;;;4.92;4.03;;;19.30;75.20;;;;;;1924606;74;21080;-48
2023/05/14 09:10:31;;;;;;;5.30;3.75;;;19.40;74.70;;;;;;1924601;74;20995;-48
2023/05/14 09:13:00;;;;;;;8.10;4.30;;;19.40;75.20;;;;;;1924600;74;21026;-48
2023/05/14 09:15:30;;;;;;;7.03;4.15;;;19.50;75.10;;;;;;1924564;74;21104;-48
2023/05/14 09:18:00;;;;;;;5.10;4.25;;;19.60;74.60;;;;;;1924619;74;20999;-47
2023/05/14 09:20:29;;;;;;;5.10;4.12;;;19.60;74.40;;;;;;1924637;74;21034;-48
2023/05/14 09:23:01;;;;;;;5.12;3.83;;;19.60;74.10;;;;;;1924631;74;21070;-47
2023/05/14 09:25:34;;;;;;;8.15;3.72;;;19.60;74.50;;;;;;1924558;74;21088;-49
2023/05/14 09:28:08;;;;;;;10.50;3.80;;;19.70;74.40;;;;;;1924650;74;21003;-47
2023/05/14 09:30:37;;;;;;;4.25;3.27;;;19.80;74.20;;;;;;1924643;74;21101;-47
2023/05/14 09:33:09;;;;;;;4.67;3.27;;;19.80;74.50;;;;;;1924696;74;21026;-48
2023/05/14 09:35:44;;;;;;;4.72;3.60;;;19.90;74.30;;;;;;1924617;74;20995;-48
2023/05/14 09:38:09;;;;;;;5.03;4.03;;;20.00;73.60;;;;;;1924044;74;21124;-48
2023/05/14 09:40:39;;;;;;;8.25;4.22;;;20.00;74.00;;;;;;1907495;74;21136;-48
2023/05/14 09:43:08;;;;;;;6.62;4.20;;;20.10;73.70;;;;;;1905356;75;21028;-48
2023/05/14 09:45:37;;;;;;;5.37;4.42;;;20.10;73.30;;;;;;1905411;75;21016;-48
2023/05/14 09:48:07;;;;;;;7.08;4.20;;;20.10;73.70;;;;;;1905309;75;20996;-48
2023/05/14 09:50:44;;;;;;;6.83;4.67;;;20.10;73.60;;;;;;1905235;75;21016;-47
2023/05/14 09:53:14;;;;;;;4.72;3.50;;;20.10;73.00;;;;;;1905253;75;21532;-48
2023/05/14 09:55:43;;;;;;;6.45;4.10;;;20.10;72.10;;;;;;1905296;75;21200;-48
2023/05/14 09:58:16;;;;;;;5.80;3.85;;;20.10;73.50;;;;;;1905318;75;21524;-49
2023/05/14 10:00:46;;;;;;;6.33;3.08;;;20.20;73.10;;;;;;1905367;75;21016;-47
2023/05/14 10:03:16;;;;;;;6.90;3.42;;;20.20;73.00;;;;;;1905302;75;20980;-48
2023/05/14 10:05:46;;;;;;;5.12;4.37;;;20.30;73.00;;;;;;1905258;75;20988;-48
2023/05/14 10:08:21;;;;;;;5.30;3.05;;;20.40;72.30;;;;;;1905412;75;21510;-47
2023/05/14 10:10:53;;;;;;;6.70;3.08;;;20.50;72.50;;;;;;1904856;74;21019;-48
2023/05/14 10:13:25;;;;;;;5.08;3.70;;;20.50;71.10;;;;;;1905393;75;21004;-48
2023/05/14 10:16:06;;;;;;;6.50;3.77;;;20.50;71.70;;;;;;1905208;75;21039;-48
2023/05/14 10:18:38;;;;;;;5.62;3.37;;;20.50;71.10;;;;;;1905142;74;21084;-48
2023/05/14 10:21:10;;;;;;;4.20;3.25;;;20.50;70.70;;;;;;1905032;74;21093;-48
2023/05/14 10:23:40;;;;;;;7.22;4.10;;;20.50;70.70;;;;;;1905327;74;20988;-49
2023/05/14 10:26:10;;;;;;;4.37;3.60;;;20.50;70.20;;;;;;1905384;75;21038;-49
2023/05/14 10:28:39;;;;;;;5.40;4.10;;;20.50;69.70;;;;;;1905169;75;21003;-48
2023/05/14 10:31:10;;;;;;;11.60;4.75;;;20.50;69.90;;;;;;1905181;75;21023;-49
2023/05/14 10:33:49;;;;;;;10.53;4.58;;;20.60;70.70;;;;;;1905461;75;21121;-48
2023/05/14 10:36:20;;;;;;;7.83;3.58;;;20.60;70.70;;;;;;1905376;75;21039;-48
2023/05/14 10:38:51;;;;;;;4.58;3.62;;;20.70;70.40;;;;;;1905524;75;21020;-48
2023/05/14 10:41:20;;;;;;;6.53;4.00;;;20.70;70.30;;;;;;1922997;74;21571;-48
2023/05/14 10:43:50;;;;;;;5.22;3.80;;;20.70;70.20;;;;;;1924898;74;21131;-47
2023/05/14 10:46:20;;;;;;;6.55;4.08;;;20.80;70.00;;;;;;1924874;74;21143;-48
2023/05/14 10:48:49;;;;;;;4.33;3.00;;;20.90;69.90;;;;;;1924857;74;21062;-48
2023/05/14 10:51:21;;;;;;;4.60;3.35;;;20.80;69.00;;;;;;1924937;74;21015;-48
2023/05/14 10:53:49;;;;;;;4.67;3.77;;;20.90;69.20;;;;;;1924820;73;21031;-47
2023/05/14 10:56:20;;;;;;;4.85;3.10;;;20.90;69.00;;;;;;1924839;74;21098;-49
2023/05/14 10:58:50;;;;;;;5.35;3.52;;;20.90;68.50;;;;;;1924869;74;21090;-48
2023/05/14 11:01:20;;;;;;;4.33;2.83;;;20.90;68.80;;;;;;1924853;74;21018;-48
2023/05/14 11:03:52;;;;;;;5.95;3.15;;;20.90;68.10;;;;;;1924684;74;21132;-48
2023/05/14 11:06:21;;;;;;;3.17;2.58;;;20.90;68.20;;;;;;1924817;74;21019;-47
2023/05/14 11:08:52;;;;;;;4.37;3.10;;;20.90;67.90;;;;;;1924750;74;21060;-48
2023/05/14 11:11:21;;;;;;;5.58;3.05;;;21.00;67.10;;;;;;1924788;74;21221;-47
2023/05/14 11:13:50;;;;;;;4.67;2.67;;;21.10;66.10;;;;;;1924770;74;21042;-48
2023/05/14 11:16:22;;;;;;;5.03;3.20;;;21.10;65.80;;;;;;1924801;74;21462;-51
2023/05/14 11:19:02;;;;;;;5.12;3.20;;;21.10;65.90;;;;;;1925014;74;21080;-48
2023/05/14 11:21:31;;;;;;;6.92;3.00;;;21.10;65.90;;;;;;1924813;74;21437;-48
2023/05/14 11:24:02;;;;;;;4.47;3.25;;;21.10;65.40;;;;;;1924881;74;20999;-47
2023/05/14 11:26:32;;;;;;;5.05;3.10;;;21.20;65.00;;;;;;1924894;74;21035;-48
2023/05/14 11:29:01;;;;;;;4.72;2.50;;;21.20;65.60;;;;;;1924770;74;21101;-48
2023/05/14 11:31:30;;;;;;;4.53;2.70;;;21.20;65.60;;;;;;1924805;74;21171;-47
2023/05/14 11:34:00;;;;;;;5.67;3.72;;;21.30;65.40;;;;;;1924791;74;21014;-48
2023/05/14 11:36:29;;;;;;;4.80;3.05;;;21.30;64.60;;;;;;1924811;74;20998;-48
2023/05/14 11:38:59;;;;;;;5.20;3.27;;;21.30;64.60;;;;;;1924996;74;21100;-48
2023/05/14 11:41:29;;;;;;;3.37;3.00;;;21.30;65.00;;;;;;1924878;74;21078;-48
2023/05/14 11:43:59;;;;;;;6.83;3.60;;;21.40;63.60;;;;;;1924881;74;21442;-48
2023/05/14 11:46:29;;;;;;;4.85;2.85;;;21.40;63.70;;;;;;1924917;74;21080;-47
2023/05/14 11:48:58;;;;;;;6.50;2.70;;;21.50;64.00;;;;;;1924757;74;20995;-48
2023/05/14 11:51:28;;;;;;;5.15;3.20;;;21.60;62.70;;;;;;1924711;74;21011;-48
2023/05/14 11:54:02;;;;;;;5.28;3.00;;;21.60;62.30;;;;;;1924633;74;21023;-48
2023/05/14 11:56:31;;;;;;;4.85;3.12;;;21.60;62.00;;;;;;1925006;74;21039;-48
2023/05/14 11:59:00;;;;;;;5.42;3.10;;;21.70;62.80;;;;;;1924759;74;21066;-48
2023/05/14 12:01:33;;;;;;;3.87;2.87;;;21.80;62.40;;;;;;1924689;74;21026;-48
2023/05/14 12:04:01;;;;;;;4.90;3.12;;;21.80;61.70;;;;;;1924514;74;21073;-47
2023/05/14 12:06:32;;;;;;;4.85;3.17;;;21.90;62.00;;;;;;1924702;74;21135;-48
2023/05/14 12:09:02;;;;;;;4.62;2.95;;;22.00;62.20;;;;;;1924516;74;21011;-49
2023/05/14 12:11:36;;;;;;;4.45;3.00;;;22.10;61.10;;;;;;1924711;74;21019;-47
2023/05/14 12:14:13;;;;;;;4.08;3.02;;;22.10;61.10;;;;;;1924869;74;21084;-49
2023/05/14 12:16:45;;;;;;;5.90;3.20;;;22.10;60.80;;;;;;1924727;74;21034;-49
2023/05/14 12:19:20;;;;;;;3.92;2.50;;;22.20;60.30;;;;;;1924732;74;21011;-48
2023/05/14 12:21:52;;;;;;;5.08;2.90;;;22.10;59.40;;;;;;1924758;74;21089;-48
2023/05/14 12:24:21;;;;;;;8.90;3.12;;;22.10;59.90;;;;;;1924862;74;21003;-48
2023/05/14 12:26:51;;;;;;;4.30;2.92;;;22.10;59.90;;;;;;1924719;74;21046;-48
2023/05/14 12:29:20;;;;;;;6.33;4.15;;;22.10;58.70;;;;;;1924712;74;21066;-47
2023/05/14 12:31:50;;;;;;;4.35;2.67;;;22.20;58.90;;;;;;1924678;74;21011;-48
2023/05/14 12:34:19;;;;;;;6.33;3.60;;;22.20;58.90;;;;;;1924702;74;21457;-47
2023/05/14 12:36:49;;;;;;;4.25;3.12;;;22.20;59.10;;;;;;1924659;74;21047;-48
2023/05/14 12:39:18;;;;;;;7.10;4.22;;;22.30;58.90;;;;;;1924818;74;21018;-48
2023/05/14 12:41:47;;;;;;;7.30;3.98;;;22.30;58.90;;;;;;1913887;74;21055;-48
2023/05/14 12:44:16;;;;;;;10.38;5.37;;;22.30;59.00;;;;;;1905229;75;21008;-48
2023/05/14 12:46:45;;;;;;;4.37;2.90;;;22.30;59.10;;;;;;1905212;75;21073;-47
2023/05/14 12:49:15;;;;;;;2.60;2.40;;;22.30;58.70;;;;;;1905180;75;21069;-47
2023/05/14 12:51:45;;;;;;;3.75;3.02;;;22.40;56.40;;;;;;1905166;75;21085;-48
2023/05/14 12:54:15;;;;;;;6.28;3.27;;;22.50;56.50;;;;;;1905127;75;21454;-47